sensor_id;sensor_type;location;lat;lon;timestamp;pressure;altitude;pressure_sealevel;temperature
49557;BMP280;35462;45.048;7.666;2023-08-17T00:08:57;99135.94;;;26.42
49557;BMP280;35462;45.048;7.666;2023-08-17T00:24:16;99146.81;;;26.37
49557;BMP280;35462;45.048;7.666;2023-08-17T00:39:36;99155.44;;;26.41
49557;BMP280;35462;45.048;7.666;2023-08-17T00:54:56;99124.09;;;26.40
49557;BMP280;35462;45.048;7.666;2023-08-17T01:10:16;99107.59;;;26.32
49557;BMP280;35462;45.048;7.666;2023-08-17T01:25:36;99112.97;;;26.38
49557;BMP280;35462;45.048;7.666;2023-08-17T01:40:56;99108.25;;;26.38
49557;BMP280;35462;45.048;7.666;2023-08-17T01:56:17;99106.81;;;26.32
49557;BMP280;35462;45.048;7.666;2023-08-17T02:11:38;99096.94;;;26.34
49557;BMP280;35462;45.048;7.666;2023-08-17T02:26:57;99096.75;;;26.27
49557;BMP280;35462;45.048;7.666;2023-08-17T02:42:17;99069.75;;;26.34
49557;BMP280;35462;45.048;7.666;2023-08-17T02:57:36;99068.75;;;26.37
49557;BMP280;35462;45.048;7.666;2023-08-17T03:12:57;99064.31;;;26.34
49557;BMP280;35462;45.048;7.666;2023-08-17T03:28:17;99053.72;;;26.31
49557;BMP280;35462;45.048;7.666;2023-08-17T03:43:39;99044.13;;;26.30
49557;BMP280;35462;45.048;7.666;2023-08-17T03:58:58;99058.72;;;26.27
49557;BMP280;35462;45.048;7.666;2023-08-17T04:14:18;99040.94;;;26.26
49557;BMP280;35462;45.048;7.666;2023-08-17T04:29:40;99045.63;;;26.25
49557;BMP280;35462;45.048;7.666;2023-08-17T04:45:01;99041.97;;;26.23
49557;BMP280;35462;45.048;7.666;2023-08-17T05:00:21;99043.19;;;26.22
49557;BMP280;35462;45.048;7.666;2023-08-17T05:15:47;99046.16;;;26.24
49557;BMP280;35462;45.048;7.666;2023-08-17T05:31:08;99049.97;;;26.10
49557;BMP280;35462;45.048;7.666;2023-08-17T05:46:35;99035.72;;;26.33
49557;BMP280;35462;45.048;7.666;2023-08-17T06:01:55;99023.91;;;26.55
49557;BMP280;35462;45.048;7.666;2023-08-17T06:17:14;99054.00;;;26.57
49557;BMP280;35462;45.048;7.666;2023-08-17T06:32:34;99034.84;;;26.44
49557;BMP280;35462;45.048;7.666;2023-08-17T06:47:53;99048.50;;;26.68
49557;BMP280;35462;45.048;7.666;2023-08-17T07:03:13;99054.44;;;30.84
49557;BMP280;35462;45.048;7.666;2023-08-17T07:18:32;99057.59;;;31.45
49557;BMP280;35462;45.048;7.666;2023-08-17T07:33:52;99047.31;;;31.23
49557;BMP280;35462;45.048;7.666;2023-08-17T07:49:11;99037.16;;;32.05
49557;BMP280;35462;45.048;7.666;2023-08-17T08:04:31;99039.59;;;32.78
49557;BMP280;35462;45.048;7.666;2023-08-17T08:19:50;99039.28;;;33.05
49557;BMP280;35462;45.048;7.666;2023-08-17T08:35:10;99023.84;;;33.42
49557;BMP280;35462;45.048;7.666;2023-08-17T08:50:31;99022.78;;;33.37
49557;BMP280;35462;45.048;7.666;2023-08-17T09:05:56;99022.47;;;33.01
49557;BMP280;35462;45.048;7.666;2023-08-17T09:21:24;99014.38;;;32.57
49557;BMP280;35462;45.048;7.666;2023-08-17T09:36:45;99010.63;;;32.38
49557;BMP280;35462;45.048;7.666;2023-08-17T09:52:06;99000.25;;;32.21
49557;BMP280;35462;45.048;7.666;2023-08-17T10:07:30;98990.69;;;32.37
49557;BMP280;35462;45.048;7.666;2023-08-17T10:22:51;98965.44;;;32.31
49557;BMP280;35462;45.048;7.666;2023-08-17T10:38:12;98944.00;;;32.52
49557;BMP280;35462;45.048;7.666;2023-08-17T10:53:36;98931.19;;;32.54
49557;BMP280;35462;45.048;7.666;2023-08-17T11:08:58;98933.88;;;32.62
49557;BMP280;35462;45.048;7.666;2023-08-17T11:24:18;98915.03;;;32.66
49557;BMP280;35462;45.048;7.666;2023-08-17T11:39:37;98901.69;;;32.62
49557;BMP280;35462;45.048;7.666;2023-08-17T11:54:57;98878.78;;;32.67
49557;BMP280;35462;45.048;7.666;2023-08-17T12:10:18;98868.75;;;32.62
49557;BMP280;35462;45.048;7.666;2023-08-17T12:25:38;98863.91;;;32.46
49557;BMP280;35462;45.048;7.666;2023-08-17T12:40:58;98857.59;;;32.85
49557;BMP280;35462;45.048;7.666;2023-08-17T12:56:17;98851.97;;;32.83
49557;BMP280;35462;45.048;7.666;2023-08-17T13:11:36;98814.56;;;32.70
49557;BMP280;35462;45.048;7.666;2023-08-17T13:26:56;98797.72;;;32.74
49557;BMP280;35462;45.048;7.666;2023-08-17T13:42:16;98783.09;;;32.71
49557;BMP280;35462;45.048;7.666;2023-08-17T13:57:36;98763.69;;;32.69
49557;BMP280;35462;45.048;7.666;2023-08-17T14:12:56;98740.50;;;32.63
49557;BMP280;35462;45.048;7.666;2023-08-17T14:28:15;98729.81;;;32.50
49557;BMP280;35462;45.048;7.666;2023-08-17T14:43:35;98724.22;;;32.41
49557;BMP280;35462;45.048;7.666;2023-08-17T14:58:54;98732.13;;;32.29
49557;BMP280;35462;45.048;7.666;2023-08-17T15:14:14;98752.28;;;32.24
49557;BMP280;35462;45.048;7.666;2023-08-17T15:29:33;98748.59;;;32.29
49557;BMP280;35462;45.048;7.666;2023-08-17T15:44:53;98744.94;;;32.34
49557;BMP280;35462;45.048;7.666;2023-08-17T16:00:13;98746.00;;;32.31
49557;BMP280;35462;45.048;7.666;2023-08-17T16:15:32;98756.88;;;32.22
49557;BMP280;35462;45.048;7.666;2023-08-17T16:30:52;98722.06;;;32.07
49557;BMP280;35462;45.048;7.666;2023-08-17T16:46:11;98764.28;;;32.04
49557;BMP280;35462;45.048;7.666;2023-08-17T17:01:31;98743.34;;;31.85
49557;BMP280;35462;45.048;7.666;2023-08-17T17:16:50;98777.38;;;31.82
49557;BMP280;35462;45.048;7.666;2023-08-17T17:32:10;98824.69;;;31.75
49557;BMP280;35462;45.048;7.666;2023-08-17T17:47:29;98832.78;;;31.65
49557;BMP280;35462;45.048;7.666;2023-08-17T18:02:53;98757.22;;;31.40
49557;BMP280;35462;45.048;7.666;2023-08-17T18:18:13;98773.47;;;31.31
49557;BMP280;35462;45.048;7.666;2023-08-17T18:33:32;98790.28;;;31.27
49557;BMP280;35462;45.048;7.666;2023-08-17T18:48:52;98862.72;;;31.11
49557;BMP280;35462;45.048;7.666;2023-08-17T19:04:11;98893.22;;;31.00
49557;BMP280;35462;45.048;7.666;2023-08-17T19:19:30;98924.34;;;30.83
49557;BMP280;35462;45.048;7.666;2023-08-17T19:34:50;98955.53;;;30.37
49557;BMP280;35462;45.048;7.666;2023-08-17T19:50:10;98960.72;;;30.20
49557;BMP280;35462;45.048;7.666;2023-08-17T20:05:29;98971.56;;;30.05
49557;BMP280;35462;45.048;7.666;2023-08-17T20:20:51;98986.22;;;29.95
49557;BMP280;35462;45.048;7.666;2023-08-17T20:36:10;98974.44;;;29.80
49557;BMP280;35462;45.048;7.666;2023-08-17T20:51:30;98978.50;;;29.66
49557;BMP280;35462;45.048;7.666;2023-08-17T21:06:50;98986.41;;;29.56
49557;BMP280;35462;45.048;7.666;2023-08-17T21:22:09;98988.69;;;29.45
49557;BMP280;35462;45.048;7.666;2023-08-17T21:37:29;98987.28;;;29.31
49557;BMP280;35462;45.048;7.666;2023-08-17T21:52:49;98982.81;;;29.21
49557;BMP280;35462;45.048;7.666;2023-08-17T22:08:10;98997.00;;;29.06
49557;BMP280;35462;45.048;7.666;2023-08-17T22:23:30;98982.78;;;28.88
49557;BMP280;35462;45.048;7.666;2023-08-17T22:38:49;98977.25;;;28.67
49557;BMP280;35462;45.048;7.666;2023-08-17T22:54:08;98969.16;;;28.49
49557;BMP280;35462;45.048;7.666;2023-08-17T23:09:29;98975.88;;;28.35
49557;BMP280;35462;45.048;7.666;2023-08-17T23:24:49;98972.06;;;28.25
49557;BMP280;35462;45.048;7.666;2023-08-17T23:40:08;98975.19;;;28.16
49557;BMP280;35462;45.048;7.666;2023-08-17T23:55:28;98966.38;;;28.10
